createdAt,value
2022-08-19T03:16:10.631Z,98430.63
2022-08-19T03:19:23.856Z,98429.75
2022-08-19T03:22:34.591Z,98427.94
2022-08-19T03:25:47.355Z,98431.41
2022-08-19T03:29:13.440Z,98440.94
2022-08-19T03:32:33.003Z,98448.66
2022-08-19T03:35:46.073Z,98458.19
2022-08-19T03:38:59.757Z,98464.25
2022-08-19T03:42:45.382Z,98457.41
2022-08-19T03:45:40.897Z,98465.22
2022-08-19T03:48:54.942Z,98463.50
2022-08-19T03:52:08.661Z,98466.94
2022-08-19T03:55:20.978Z,98463.38
2022-08-19T03:58:32.005Z,98463.28
2022-08-19T04:01:44.535Z,98470.13
2022-08-19T04:04:56.415Z,98484.78
2022-08-19T04:08:13.281Z,98478.63
2022-08-19T04:11:43.158Z,98474.28
2022-08-19T04:14:54.516Z,98469.78
2022-08-19T04:18:07.105Z,98473.16
2022-08-19T04:21:20.384Z,98462.69
2022-08-19T04:24:33.551Z,98466.13
2022-08-19T04:27:47.450Z,98471.16
2022-08-19T04:30:59.190Z,98472.81
2022-08-19T04:34:12.217Z,98470.94
2022-08-19T04:37:22.517Z,98463.97
2022-08-19T04:40:45.452Z,98460.41
2022-08-19T04:44:02.463Z,98459.47
2022-08-19T04:47:14.997Z,98457.59
2022-08-19T04:50:25.676Z,98454.84
2022-08-19T04:53:38.949Z,98462.41
2022-08-19T04:56:51.895Z,98470.16
2022-08-19T07:11:10.797Z,98544.47
2022-08-19T07:14:25.474Z,98547.31
2022-08-19T07:17:39.524Z,98548.56
2022-08-19T07:20:50.133Z,98547.88
2022-08-19T07:24:04.149Z,98538.94
2022-08-19T07:27:18.112Z,98534.47
2022-08-19T07:30:38.773Z,98536.69
2022-08-19T07:33:51.837Z,98538.63
2022-08-19T07:37:06.298Z,98544.28
2022-08-19T07:40:16.511Z,98543.66
2022-08-19T07:43:33.388Z,98535.34
2022-08-19T07:46:53.174Z,98532.69
2022-08-19T07:50:05.438Z,98534.53
2022-08-19T07:53:18.193Z,98542.00
2022-08-19T07:56:28.707Z,98550.25
2022-08-19T07:59:39.291Z,98548.47
2022-08-19T08:02:51.382Z,98559.53
2022-08-19T08:06:15.797Z,98557.59
2022-08-19T08:09:31.353Z,98558.66
2022-08-19T08:12:44.397Z,98565.09
2022-08-19T08:16:15.175Z,98560.31
2022-08-19T08:19:28.424Z,98555.97
2022-08-19T08:22:49.682Z,98557.97
2022-08-19T08:26:00.920Z,98561.66
2022-08-19T08:29:14.146Z,98558.97
2022-08-19T08:32:25.092Z,98562.78
2022-08-19T08:35:37.636Z,98563.84
2022-08-19T08:38:48.502Z,98560.13
2022-08-19T08:42:10.225Z,98560.13
2022-08-19T08:45:27.082Z,98565.41
2022-08-19T08:48:52.554Z,98566.94
2022-08-19T08:52:16.495Z,98566.59
2022-08-19T08:55:36.822Z,98567.94
2022-08-19T08:58:56.674Z,98570.22
2022-08-19T09:02:07.908Z,98568.91
2022-08-19T09:05:22.069Z,98571.59
2022-08-19T09:08:47.112Z,98564.81
2022-08-19T09:12:07.154Z,98568.78
2022-08-19T09:15:33.374Z,98558.56
2022-08-19T09:18:46.948Z,98557.69
2022-08-19T09:21:58.496Z,98560.25
2022-08-19T09:25:13.858Z,98564.34
2022-08-19T09:28:27.041Z,98577.38
2022-08-19T09:31:38.808Z,98567.75
2022-08-19T09:34:51.288Z,98554.06
2022-08-19T09:38:02.401Z,98562.94
2022-08-19T09:41:16.285Z,98567.16
2022-08-19T09:44:28.235Z,98552.91
2022-08-19T09:47:40.594Z,98543.50
2022-08-19T09:50:52.354Z,98530.47
2022-08-19T09:54:05.589Z,98526.97
2022-08-19T09:57:19.132Z,98530.50
2022-08-19T10:00:30.027Z,98516.44
2022-08-19T10:03:40.269Z,98529.63
2022-08-19T10:06:53.873Z,98526.06
2022-08-19T10:10:07.160Z,98523.47
2022-08-19T10:13:25.864Z,98528.75
2022-08-19T10:16:40.067Z,98530.47
2022-08-19T10:19:55.793Z,98530.44
2022-08-19T10:23:07.244Z,98519.00
2022-08-19T10:26:20.819Z,98514.59
2022-08-19T10:29:33.514Z,98508.31
2022-08-19T10:32:46.396Z,98516.25
2022-08-19T10:36:02.569Z,98511.94
2022-08-19T10:39:13.708Z,98510.16
2022-08-19T10:42:24.115Z,98504.00
2022-08-19T10:45:36.639Z,98512.78
2022-08-19T10:49:05.219Z,98495.81
2022-08-19T10:52:32.415Z,98498.22
2022-08-19T10:55:54.276Z,98504.34
2022-08-19T10:59:06.478Z,98495.31
2022-08-19T11:02:18.163Z,98484.34
2022-08-19T11:05:28.398Z,98485.72
2022-08-19T11:08:41.128Z,98500.19
2022-08-19T11:11:51.416Z,98494.91
2022-08-19T11:15:03.242Z,98492.22
2022-08-19T11:18:15.387Z,98473.16
2022-08-19T11:21:31.657Z,98481.97
2022-08-19T11:24:41.988Z,98478.28
2022-08-19T11:27:54.185Z,98486.75
2022-08-19T11:31:05.657Z,98474.66
2022-08-19T11:34:20.417Z,98491.59
2022-08-19T11:37:32.846Z,98476.28
2022-08-19T11:40:43.515Z,98467.75
2022-08-19T11:43:56.066Z,98452.84
2022-08-19T11:47:08.986Z,98447.88
2022-08-19T11:50:21.696Z,98460.03
2022-08-19T11:53:32.600Z,98458.34
2022-08-19T11:56:45.352Z,98446.88
2022-08-19T11:59:55.676Z,98442.06
2022-08-19T12:03:07.778Z,98440.56
2022-08-19T12:06:28.775Z,98447.78
2022-08-19T12:09:42.651Z,98444.66
2022-08-19T12:12:58.013Z,98431.06
2022-08-19T12:17:13.012Z,98414.78
2022-08-19T12:20:48.593Z,98417.75
2022-08-19T12:24:02.208Z,98413.38
2022-08-19T12:27:12.937Z,98406.50
2022-08-19T12:30:22.909Z,98399.56
2022-08-19T12:33:32.833Z,98406.44
2022-08-19T12:36:42.729Z,98403.38
2022-08-19T12:39:55.847Z,98402.63
2022-08-19T12:43:05.523Z,98413.09
2022-08-19T12:46:18.288Z,98419.09
2022-08-19T12:49:54.204Z,98420.00
2022-08-19T12:52:59.861Z,98409.16
2022-08-19T12:56:13.705Z,98407.63
2022-08-19T12:59:23.355Z,98395.59
2022-08-19T13:02:38.292Z,98407.13
2022-08-19T13:05:52.636Z,98414.81
2022-08-19T13:09:02.267Z,98406.72
2022-08-19T13:12:14.328Z,98410.81
2022-08-19T13:15:25.311Z,98411.56
2022-08-19T13:18:34.956Z,98409.88
2022-08-19T13:21:44.522Z,98425.06
2022-08-19T13:24:55.856Z,98426.63
2022-08-19T13:28:07.460Z,98432.84
2022-08-19T13:31:32.569Z,98426.13
2022-08-19T13:34:42.173Z,98427.19
2022-08-19T13:37:51.802Z,98429.88
2022-08-19T13:41:11.106Z,98420.19
2022-08-19T13:44:23.482Z,98409.50
2022-08-19T13:47:33.073Z,98403.13
2022-08-19T13:50:45.275Z,98407.81
2022-08-19T13:53:56.178Z,98412.03
2022-08-19T13:57:05.962Z,98408.81
2022-08-19T14:00:19.578Z,98413.81
2022-08-19T14:03:29.643Z,98408.25
2022-08-19T14:06:39.286Z,98415.63
2022-08-19T14:09:49.256Z,98419.09
2022-08-19T14:13:01.224Z,98432.03
2022-08-19T14:16:14.582Z,98435.28
2022-08-19T14:19:24.191Z,98438.22
2022-08-19T14:22:34.140Z,98439.78
2022-08-19T14:25:44.311Z,98441.81
2022-08-19T14:28:54.041Z,98433.25
2022-08-19T14:32:05.476Z,98436.91
2022-08-19T14:35:20.121Z,98430.84
2022-08-19T14:38:32.328Z,98420.25
2022-08-19T14:41:43.411Z,98423.66
2022-08-19T14:44:53.007Z,98416.34
2022-08-19T14:48:04.524Z,98427.53
2022-08-19T14:51:14.917Z,98422.88
2022-08-19T14:54:24.520Z,98411.28
2022-08-19T14:57:37.102Z,98412.28
2022-08-19T15:00:46.767Z,98418.78
2022-08-19T15:04:00.045Z,98419.94
2022-08-19T15:07:10.261Z,98421.91
2022-08-19T15:10:19.930Z,98402.59
2022-08-19T15:13:31.026Z,98409.69
2022-08-19T15:16:42.667Z,98400.81
2022-08-19T15:19:54.058Z,98397.84
2022-08-19T15:23:04.250Z,98395.94
2022-08-19T15:26:16.249Z,98389.81
2022-08-19T15:29:26.428Z,98383.38
2022-08-19T15:32:37.221Z,98380.28
2022-08-19T15:35:50.797Z,98372.06
2022-08-19T15:39:00.480Z,98383.25
2022-08-19T15:42:10.320Z,98388.44
2022-08-19T15:45:21.807Z,98385.28
2022-08-19T15:48:34.129Z,98393.69
2022-08-19T15:51:47.136Z,98389.00
2022-08-19T15:54:57.076Z,98396.69
2022-08-19T15:58:21.865Z,98402.25
2022-08-19T16:01:51.852Z,98400.59
2022-08-19T16:05:12.591Z,98399.22
2022-08-19T16:08:23.567Z,98394.00
2022-08-19T16:11:39.448Z,98397.94
2022-08-19T16:14:50.189Z,98392.19
2022-08-19T16:18:02.729Z,98402.72
2022-08-19T16:21:13.887Z,98407.53
2022-08-19T16:24:26.967Z,98400.16
2022-08-19T16:27:37.260Z,98419.06
2022-08-19T16:30:48.626Z,98402.19
2022-08-19T16:34:00.789Z,98394.25
2022-08-19T16:37:10.999Z,98395.06
2022-08-19T16:40:22.105Z,98409.44
2022-08-19T16:43:32.318Z,98410.34
2022-08-19T16:46:42.555Z,98404.91
2022-08-19T16:49:55.219Z,98403.00
2022-08-19T16:53:07.722Z,98412.09
2022-08-19T16:56:19.458Z,98416.38
2022-08-19T16:59:29.075Z,98416.25
2022-08-19T17:02:39.304Z,98419.59
2022-08-19T17:05:51.717Z,98419.53
2022-08-19T17:09:03.254Z,98420.44
2022-08-19T17:12:15.472Z,98423.16
2022-08-19T17:15:25.211Z,98426.16
2022-08-19T17:18:34.899Z,98427.41
2022-08-19T17:21:44.565Z,98427.47
2022-08-19T17:24:56.124Z,98433.91
2022-08-19T17:28:10.475Z,98428.72
2022-08-19T17:31:22.996Z,98432.38
2022-08-19T17:34:33.488Z,98437.75
2022-08-19T17:37:43.100Z,98443.13
2022-08-19T17:40:53.403Z,98438.78
2022-08-19T17:44:06.311Z,98452.97
2022-08-19T17:47:15.956Z,98458.22
2022-08-19T17:50:26.035Z,98459.13
2022-08-19T17:53:36.644Z,98457.41
2022-08-19T17:56:47.270Z,98468.03
2022-08-19T17:59:58.414Z,98469.78
2022-08-19T18:03:08.937Z,98472.41
2022-08-19T18:06:21.873Z,98475.03
2022-08-19T18:09:41.769Z,98474.13
2022-08-19T18:12:53.171Z,98480.25
2022-08-19T18:16:05.425Z,98488.09
2022-08-19T18:19:15.080Z,98490.72
2022-08-19T18:22:28.370Z,98489.72
2022-08-19T18:25:42.018Z,98491.34
2022-08-19T18:28:54.073Z,98505.38
2022-08-19T18:32:05.531Z,98499.16
2022-08-19T18:35:20.046Z,98498.16
2022-08-19T18:38:40.651Z,98507.72
2022-08-19T18:42:01.457Z,98522.47
2022-08-19T18:45:23.851Z,98532.06
2022-08-19T18:48:46.252Z,98541.59
2022-08-19T18:51:56.643Z,98544.06
2022-08-19T18:55:08.750Z,98539.56
2022-08-19T18:58:18.367Z,98550.91
2022-08-19T19:01:31.002Z,98556.16
2022-08-19T19:04:42.657Z,98564.75
2022-08-19T19:07:54.294Z,98564.59
2022-08-19T19:11:06.225Z,98564.38
2022-08-19T19:14:45.692Z,98579.03
2022-08-19T19:17:50.298Z,98583.16
2022-08-19T19:21:01.378Z,98588.13
2022-08-19T19:24:11.623Z,98584.41
2022-08-19T19:27:23.663Z,98590.22
2022-08-19T19:30:33.299Z,98596.97
2022-08-19T19:33:44.320Z,98608.97
2022-08-19T19:36:55.389Z,98600.78
2022-08-19T19:40:06.325Z,98605.69
2022-08-19T19:43:17.053Z,98613.09
2022-08-19T19:46:26.684Z,98616.34
2022-08-19T19:49:52.535Z,98630.84
2022-08-19T19:53:08.422Z,98633.22
2022-08-19T19:56:19.798Z,98630.41
2022-08-19T19:59:29.844Z,98640.69
2022-08-19T20:02:39.589Z,98644.59
2022-08-19T20:05:50.002Z,98646.97
2022-08-19T20:09:10.386Z,98646.69
2022-08-19T20:12:20.340Z,98646.28
2022-08-19T20:15:31.238Z,98647.84
2022-08-19T20:18:41.119Z,98661.34
2022-08-19T20:21:51.616Z,98670.72
2022-08-19T20:25:02.543Z,98677.38
2022-08-19T20:28:13.080Z,98679.75
2022-08-19T20:31:23.578Z,98676.06
2022-08-19T20:34:39.755Z,98677.66
2022-08-19T20:37:52.833Z,98680.06
2022-08-19T20:41:08.095Z,98677.22
2022-08-19T20:44:17.674Z,98675.94
2022-08-19T20:47:29.515Z,98672.28
2022-08-19T20:50:39.250Z,98674.81
2022-08-19T20:53:49.431Z,98684.97
2022-08-19T20:57:03.537Z,98679.34
2022-08-19T21:00:14.776Z,98684.38
2022-08-19T21:03:27.476Z,98680.94
2022-08-19T21:06:38.112Z,98674.81
2022-08-19T21:09:47.699Z,98679.16
2022-08-19T21:12:58.649Z,98689.41
2022-08-19T21:16:09.471Z,98695.91
2022-08-19T21:19:23.722Z,98697.19
2022-08-19T21:22:33.893Z,98700.75
2022-08-19T21:25:50.389Z,98702.81
2022-08-19T21:29:06.582Z,98706.56
2022-08-19T21:32:16.259Z,98708.25
2022-08-19T21:35:25.996Z,98707.94
2022-08-19T21:38:35.604Z,98700.75
2022-08-19T21:41:45.169Z,98710.28
2022-08-19T21:44:56.081Z,98710.13
2022-08-19T21:48:05.831Z,98710.81
2022-08-19T21:51:15.613Z,98708.19
2022-08-19T21:54:26.634Z,98711.06
2022-08-19T22:02:19.200Z,98719.69
2022-08-19T22:05:31.264Z,98723.06
2022-08-19T22:08:42.082Z,98723.91
2022-08-19T22:11:51.743Z,98724.75
2022-08-19T22:15:01.944Z,98721.19
